Flight Track Log - Related Links

Times and Time Zones

All times are in EDT time to prevent confusion due to time zone crossing. See the SWA1787 flight status page for this flight to view local times or setup timezone preferences in your user account.

Time Position Orientation Groundspeed Altitude Reporting Facility
EDT Latitude Longitude Course Direction KTS MPH feet Rate Location/Type
Fri 03:30:21 PM 39.1667 -76.7333 303° West 263 303 4,500  Level Potomac TRACON
Fri 03:31:21 PM 39.1833 -76.8167 284° West 270 311 7,600 3,322 Climbing Potomac TRACON
Fri 03:32:22 PM 39.2000 -76.9167 282° West 255 293 11,200 2,361 Climbing Potomac TRACON
Fri 03:33:23 PM 39.2303 -76.9983 296° West 294 338 12,400 1,866 Climbing Washington Center
Fri 03:34:00 PM 39.2516 -77.1849 322° Northwest  Level FlightAware Approximate
Fri 03:34:21 PM 39.2728 -77.1064 297° West 332 382 14,900  Level Washington Center
Fri 03:35:22 PM 39.3150 -77.2200 296° West 338 389 17,400 2,262 Climbing Washington Center
Fri 03:36:23 PM 39.3594 -77.3336 297° West 343 395 19,500 1,736 Climbing Washington Center
Fri 03:37:23 PM 39.4053 -77.4608 295° West 353 406 20,900 1,881 Climbing Washington Center
Fri 03:38:21 PM 39.4475 -77.5722 296° West 363 418 23,200 1,563 Climbing Washington Center
Fri 03:39:22 PM 39.4911 -77.7025 293° West 373 429 24,000 259 Climbing Washington Center
Fri 03:41:26 PM 39.5756 -77.9875 291° West 398 458 24,000  Level Cleveland Center
Fri 03:42:28 PM 39.6153 -78.1214 291° West 399 459 24,000  Level Cleveland Center
Fri 03:43:30 PM 39.6542 -78.2525 291° West 398 458 24,000  Level Cleveland Center
Fri 03:44:32 PM 39.6919 -78.3822 291° West 392 451 24,000  Level Cleveland Center
Fri 03:45:34 PM 39.7375 -78.5344 291° West 383 441 24,000  Level Cleveland Center
Fri 03:46:36 PM 39.7744 -78.6631 291° West 382 440 24,000  Level Cleveland Center
Fri 03:47:38 PM 39.8253 -78.7839 299° West 383 441 24,000  Level Cleveland Center
Fri 03:48:41 PM 39.8819 -78.8986 303° West 380 437 24,000  Level Cleveland Center
Fri 03:49:43 PM 39.9400 -79.0222 302° West 386 444 24,000  Level Cleveland Center
Fri 03:50:45 PM 39.9975 -79.1417 302° West 391 450 24,000  Level Cleveland Center
Fri 03:51:47 PM 40.0636 -79.2828 302° West 390 449 24,000  Level Cleveland Center
Fri 03:52:49 PM 40.1206 -79.4028 302° West 386 444 24,000  Level Cleveland Center
Fri 03:53:51 PM 40.1753 -79.5200 301° West 383 441 24,000  Level Cleveland Center
Fri 03:54:53 PM 40.2292 -79.6358 301° West 376 433 24,000  Level Cleveland Center
Fri 03:55:55 PM 40.2831 -79.7511 302° West 375 432 24,000  Level Cleveland Center
Fri 03:56:57 PM 40.3364 -79.8675 301° West 375 432 24,000  Level Cleveland Center
Fri 03:59:02 PM 40.4544 -80.1203 302° West 375 432 24,000  Level Cleveland Center
Fri 04:00:04 PM 40.5083 -80.2394 301° West 378 435 24,000  Level Cleveland Center
Fri 04:01:07 PM 40.5592 -80.3508 301° West 378 435 24,000  Level Cleveland Center
Fri 04:02:08 PM 40.6161 -80.4767 301° West 376 433 24,000  Level Cleveland Center
Fri 04:03:10 PM 40.6786 -80.6150 301° West 375 432 24,000  Level Cleveland Center
Fri 04:04:12 PM 40.7281 -80.7247 301° West 375 432 24,000  Level Cleveland Center
Fri 04:05:14 PM 40.7811 -80.8433 301° West 375 432 24,000  Level Cleveland Center
Fri 04:06:16 PM 40.8336 -80.9608 301° West 374 430 24,000  Level Cleveland Center
Fri 04:07:18 PM 40.8914 -81.0908 300° West 374 430 24,000  Level Cleveland Center
Fri 04:08:20 PM 40.9433 -81.2086 300° West 372 428 24,000  Level Cleveland Center
Fri 04:09:23 PM 40.9956 -81.3269 300° West 371 427 24,000  Level Cleveland Center
Fri 04:10:25 PM 41.0550 -81.4633 300° West 366 421 24,000  Level Cleveland Center
Fri 04:11:27 PM 41.1058 -81.5789 300° West 364 419 24,000  Level Cleveland Center
Fri 04:12:29 PM 41.1481 -81.6769 300° West 358 412 24,000  Level Cleveland Center
Fri 04:14:33 PM 41.2556 -81.9253 300° West 356 410 24,000  Level Cleveland Center
Fri 04:15:35 PM 41.3044 -82.0378 300° West 355 409 24,000  Level Cleveland Center
Fri 04:16:37 PM 41.3544 -82.1536 300° West 352 405 24,000 -290 Level Cleveland Center
Fri 04:17:39 PM 41.4161 -82.2589 308° West 353 406 23,400 -1,306 Descending Cleveland Center
Fri 04:18:41 PM 41.4767 -82.3592 309° West 345 397 21,300 -1,968 Descending Cleveland Center
Fri 04:19:44 PM 41.5342 -82.4556 309° West 333 383 19,300 -1,983 Descending Cleveland Center
Fri 04:20:36 PM 41.5883 -82.5525 307° West 316 364 17,500 -2,129 Descending Cleveland Center
Fri 04:20:46 PM 41.5992 -82.5644 320° Northwest 320 368 17,100 -2,250 Descending Cleveland Center
Fri 04:21:48 PM 41.6531 -82.6558 308° West 320 368 14,800 -2,250 Descending Cleveland Center
Fri 04:22:38 PM 41.7003 -82.7400 307° West 316 364 12,900 -2,129 Descending Cleveland Center
Fri 04:22:50 PM 41.7069 -82.7475 320° Northwest 318 366 12,600 -871 Descending Cleveland Center
Fri 04:23:40 PM 41.7614 -82.8236 314° West 312 359 12,000 -581 Descending Cleveland Center
Fri 04:23:52 PM 41.7664 -82.8303 315° West 312 359 12,000  Level Cleveland Center
Fri 04:24:40 PM 41.8267 -82.9022 318° Northwest 305 351 12,000  Level Cleveland Center
Fri 04:24:54 PM 41.8306 -82.9044 337° Northwest 309 356 12,000  Level Cleveland Center
Fri 04:25:41 PM 41.8903 -82.9778 318° Northwest 299 344 12,000  Level Cleveland Center
Fri 04:25:56 PM 41.9044 -82.9939 320° Northwest 302 348 12,000  Level Cleveland Center
Fri 04:26:48 PM 41.9533 -83.0564 316° Northwest 283 326 12,000  Level Cleveland Center
Fri 04:26:58 PM 41.9636 -83.0639 332° Northwest 288 331 12,000  Level Cleveland Center
Fri 04:27:49 PM 42.0131 -83.1264 317° Northwest 272 313 12,000  Level Cleveland Center
Fri 04:28:01 PM 42.0192 -83.1314 329° Northwest 272 313 12,000  Level Cleveland Center
Fri 04:28:50 PM 42.0628 -83.1867 317° Northwest 221 254 12,000  Level Cleveland Center
Fri 04:29:03 PM 42.0686 -83.1906 334° Northwest 240 276 12,000 -295 Level Cleveland Center
Fri 04:29:51 PM 42.1161 -83.2306 328° Northwest 232 267 11,700 -581 Descending Cleveland Center
Fri 04:30:05 PM 42.1267 -83.2286 North 232 267 11,400 -1,672 Descending Cleveland Center
Fri 04:30:52 PM 42.1828 -83.2061 17° North 275 316 10,000 -1,742 Descending Cleveland Center
Fri 04:31:07 PM 42.2011 -83.1925 29° Northeast 270 311 9,600 -1,082 Descending Cleveland Center
Fri 04:31:53 PM 42.2533 -83.1622 23° Northeast 259 298 8,900 -968 Descending Cleveland Center
Fri 04:32:09 PM 42.2669 -83.1550 21° North 264 304 8,600 -1,180 Descending Cleveland Center
Fri 04:32:54 PM 42.3169 -83.1258 23° Northeast 249 287 7,700 -1,161 Descending Cleveland Center
Fri 04:33:11 PM 42.3289 -83.1194 22° Northeast 251 289 7,400 -1,279 Descending Cleveland Center
Fri 04:33:55 PM 42.3692 -83.1528 329° Northwest 190 219 6,400 -1,258 Descending Cleveland Center
Fri 04:34:13 PM 42.3744 -83.1608 312° West 203 234 6,100 -2,164 Descending Cleveland Center
Fri 04:34:56 PM 42.3731 -83.2128 268° West 185 213 4,200 -2,129 Descending Cleveland Center
Fri 04:35:15 PM 42.3700 -83.2197 239° Southwest 187 215 3,900 -885 Descending Cleveland Center
Fri 04:35:57 PM 42.3303 -83.2519 211° Southwest 180 207 3,300 -774 Descending Cleveland Center
Fri 04:36:17 PM 42.3258 -83.2564 216° Southwest 187 215 3,100 -984 Descending Cleveland Center
Fri 04:36:58 PM 42.2900 -83.2831 209° Southwest 165 190 2,300 -1,065 Descending Cleveland Center
Fri 04:37:19 PM 42.2781 -83.2917 208° Southwest 172 198 2,000 -885 Descending Cleveland Center
Fri 04:37:59 PM 42.2503 -83.3114 208° Southwest 156 180 1,400 -774 Descending Cleveland Center
Fri 04:38:21 PM 42.2394 -83.3192 208° Southwest 162 186 1,200 -545 Descending Cleveland Center

Login

Don't have an account? Register now (free) for customized features, flight alerts, and more!